Terminal Aerodrome Forecast
Issued by NWS

Home | Current Version | Previous Version | Text Only | Print | Product List | Glossary On
Versions: 1 2 3 4 5 6 7 8 9 10 11 12 13 14 15 16
507
FTPA31 PHFO 290531
TAFHOG
TAF
PHOG 290531Z 2906/3006 06010KT P6SM VCSH SCT030 BKN060
     FM291200 06007KT P6SM FEW025 SCT050
     FM291800 05013KT P6SM FEW025 SCT050
     FM292200 05019G25KT P6SM FEW030 SCT060=

USA.gov is the U.S. government's official web portal to all federal, state and local government web resources and services.